sensor_id;sensor_type;location;lat;lon;timestamp;P1;durP1;ratioP1;P2;durP2;ratioP2
17965;SDS011;9108;53.204;10.424;2023-09-18T00:01:06;7.43;;;5.15;;
17965;SDS011;9108;53.204;10.424;2023-09-18T00:03:33;8.35;;;5.85;;
17965;SDS011;9108;53.204;10.424;2023-09-18T00:06:01;6.80;;;5.18;;
17965;SDS011;9108;53.204;10.424;2023-09-18T00:08:28;8.35;;;5.10;;
17965;SDS011;9108;53.204;10.424;2023-09-18T00:10:55;7.28;;;5.20;;
17965;SDS011;9108;53.204;10.424;2023-09-18T00:13:22;7.65;;;4.90;;
17965;SDS011;9108;53.204;10.424;2023-09-18T00:15:53;7.32;;;5.28;;
17965;SDS011;9108;53.204;10.424;2023-09-18T00:18:21;7.07;;;5.28;;
17965;SDS011;9108;53.204;10.424;2023-09-18T00:20:48;7.20;;;4.80;;
17965;SDS011;9108;53.204;10.424;2023-09-18T00:23:17;7.07;;;5.20;;
17965;SDS011;9108;53.204;10.424;2023-09-18T00:25:44;8.50;;;5.57;;
17965;SDS011;9108;53.204;10.424;2023-09-18T00:28:11;9.43;;;5.43;;
17965;SDS011;9108;53.204;10.424;2023-09-18T00:30:39;8.25;;;5.45;;
17965;SDS011;9108;53.204;10.424;2023-09-18T00:33:10;7.90;;;5.30;;
17965;SDS011;9108;53.204;10.424;2023-09-18T00:35:37;8.55;;;5.60;;
17965;SDS011;9108;53.204;10.424;2023-09-18T00:38:04;8.45;;;5.50;;
17965;SDS011;9108;53.204;10.424;2023-09-18T00:40:32;9.65;;;5.60;;
17965;SDS011;9108;53.204;10.424;2023-09-18T00:42:59;7.63;;;5.53;;
17965;SDS011;9108;53.204;10.424;2023-09-18T00:45:27;7.65;;;5.65;;
17965;SDS011;9108;53.204;10.424;2023-09-18T00:47:54;7.72;;;5.65;;
17965;SDS011;9108;53.204;10.424;2023-09-18T00:50:23;7.95;;;5.50;;
17965;SDS011;9108;53.204;10.424;2023-09-18T00:52:51;8.23;;;5.53;;
17965;SDS011;9108;53.204;10.424;2023-09-18T00:55:18;8.10;;;5.50;;
17965;SDS011;9108;53.204;10.424;2023-09-18T00:57:46;7.72;;;5.57;;
17965;SDS011;9108;53.204;10.424;2023-09-18T01:00:13;9.35;;;5.68;;
17965;SDS011;9108;53.204;10.424;2023-09-18T01:02:42;9.10;;;5.28;;
17965;SDS011;9108;53.204;10.424;2023-09-18T01:05:10;9.13;;;5.80;;
17965;SDS011;9108;53.204;10.424;2023-09-18T01:07:39;9.07;;;5.90;;
17965;SDS011;9108;53.204;10.424;2023-09-18T01:10:06;8.67;;;5.40;;
17965;SDS011;9108;53.204;10.424;2023-09-18T01:12:36;9.48;;;6.07;;
17965;SDS011;9108;53.204;10.424;2023-09-18T01:15:11;8.13;;;5.65;;
17965;SDS011;9108;53.204;10.424;2023-09-18T01:17:38;8.38;;;5.40;;
17965;SDS011;9108;53.204;10.424;2023-09-18T01:20:08;8.35;;;5.75;;
17965;SDS011;9108;53.204;10.424;2023-09-18T01:22:37;8.15;;;5.70;;
17965;SDS011;9108;53.204;10.424;2023-09-18T01:25:04;8.67;;;5.47;;
17965;SDS011;9108;53.204;10.424;2023-09-18T01:27:32;7.40;;;5.30;;
17965;SDS011;9108;53.204;10.424;2023-09-18T01:29:59;8.23;;;5.78;;
17965;SDS011;9108;53.204;10.424;2023-09-18T01:32:28;8.38;;;5.70;;
17965;SDS011;9108;53.204;10.424;2023-09-18T01:34:56;8.27;;;5.75;;
17965;SDS011;9108;53.204;10.424;2023-09-18T01:37:24;7.25;;;5.40;;
17965;SDS011;9108;53.204;10.424;2023-09-18T01:39:53;7.90;;;5.97;;
17965;SDS011;9108;53.204;10.424;2023-09-18T01:42:24;8.90;;;5.75;;
17965;SDS011;9108;53.204;10.424;2023-09-18T01:44:51;8.02;;;5.90;;
17965;SDS011;9108;53.204;10.424;2023-09-18T01:47:19;8.18;;;5.80;;
17965;SDS011;9108;53.204;10.424;2023-09-18T01:49:48;7.85;;;5.78;;
17965;SDS011;9108;53.204;10.424;2023-09-18T01:52:16;12.10;;;6.00;;
17965;SDS011;9108;53.204;10.424;2023-09-18T01:54:43;7.65;;;5.63;;
17965;SDS011;9108;53.204;10.424;2023-09-18T01:57:11;10.18;;;5.85;;
17965;SDS011;9108;53.204;10.424;2023-09-18T01:59:39;8.27;;;5.35;;
17965;SDS011;9108;53.204;10.424;2023-09-18T02:02:06;10.30;;;5.85;;
17965;SDS011;9108;53.204;10.424;2023-09-18T02:04:34;9.20;;;5.70;;
17965;SDS011;9108;53.204;10.424;2023-09-18T02:07:02;8.75;;;6.25;;
17965;SDS011;9108;53.204;10.424;2023-09-18T02:09:29;8.37;;;6.03;;
17965;SDS011;9108;53.204;10.424;2023-09-18T02:11:56;9.75;;;6.03;;
17965;SDS011;9108;53.204;10.424;2023-09-18T02:14:25;9.45;;;6.00;;
17965;SDS011;9108;53.204;10.424;2023-09-18T02:16:55;7.63;;;5.57;;
17965;SDS011;9108;53.204;10.424;2023-09-18T02:19:22;8.98;;;6.10;;
17965;SDS011;9108;53.204;10.424;2023-09-18T02:21:49;8.27;;;6.10;;
17965;SDS011;9108;53.204;10.424;2023-09-18T02:24:17;10.75;;;6.30;;
17965;SDS011;9108;53.204;10.424;2023-09-18T02:26:44;9.53;;;6.30;;
17965;SDS011;9108;53.204;10.424;2023-09-18T02:29:11;9.05;;;6.10;;
17965;SDS011;9108;53.204;10.424;2023-09-18T02:31:41;9.40;;;6.35;;
17965;SDS011;9108;53.204;10.424;2023-09-18T02:34:08;9.38;;;6.57;;
17965;SDS011;9108;53.204;10.424;2023-09-18T02:36:35;9.80;;;6.40;;
17965;SDS011;9108;53.204;10.424;2023-09-18T02:39:02;9.45;;;6.60;;
17965;SDS011;9108;53.204;10.424;2023-09-18T02:41:29;9.68;;;6.60;;
17965;SDS011;9108;53.204;10.424;2023-09-18T02:43:56;11.20;;;6.68;;
17965;SDS011;9108;53.204;10.424;2023-09-18T02:46:23;10.30;;;6.72;;
17965;SDS011;9108;53.204;10.424;2023-09-18T02:48:52;9.30;;;6.10;;
17965;SDS011;9108;53.204;10.424;2023-09-18T02:51:19;7.82;;;5.93;;
17965;SDS011;9108;53.204;10.424;2023-09-18T02:53:46;9.02;;;6.03;;
17965;SDS011;9108;53.204;10.424;2023-09-18T02:56:13;8.00;;;6.10;;
17965;SDS011;9108;53.204;10.424;2023-09-18T02:58:40;8.20;;;6.10;;
17965;SDS011;9108;53.204;10.424;2023-09-18T03:01:07;9.73;;;6.33;;
17965;SDS011;9108;53.204;10.424;2023-09-18T03:03:35;9.32;;;6.50;;
17965;SDS011;9108;53.204;10.424;2023-09-18T03:06:03;8.75;;;6.43;;
17965;SDS011;9108;53.204;10.424;2023-09-18T03:08:31;9.68;;;5.90;;
17965;SDS011;9108;53.204;10.424;2023-09-18T03:10:59;12.38;;;6.53;;
17965;SDS011;9108;53.204;10.424;2023-09-18T03:13:26;10.10;;;6.47;;
17965;SDS011;9108;53.204;10.424;2023-09-18T03:15:53;8.25;;;6.22;;
17965;SDS011;9108;53.204;10.424;2023-09-18T03:18:21;10.15;;;6.25;;
17965;SDS011;9108;53.204;10.424;2023-09-18T03:20:48;8.85;;;6.30;;
17965;SDS011;9108;53.204;10.424;2023-09-18T03:23:17;11.37;;;6.50;;
17965;SDS011;9108;53.204;10.424;2023-09-18T03:25:44;9.13;;;6.70;;
17965;SDS011;9108;53.204;10.424;2023-09-18T03:28:11;9.00;;;6.50;;
17965;SDS011;9108;53.204;10.424;2023-09-18T03:30:38;10.43;;;6.88;;
17965;SDS011;9108;53.204;10.424;2023-09-18T03:33:05;9.82;;;6.78;;
17965;SDS011;9108;53.204;10.424;2023-09-18T03:35:32;9.88;;;6.63;;
17965;SDS011;9108;53.204;10.424;2023-09-18T03:38:11;10.70;;;6.65;;
17965;SDS011;9108;53.204;10.424;2023-09-18T03:40:40;8.38;;;6.40;;
17965;SDS011;9108;53.204;10.424;2023-09-18T03:43:07;9.23;;;6.63;;
17965;SDS011;9108;53.204;10.424;2023-09-18T03:45:34;8.60;;;6.38;;
17965;SDS011;9108;53.204;10.424;2023-09-18T03:48:01;9.45;;;6.30;;
17965;SDS011;9108;53.204;10.424;2023-09-18T03:50:28;9.40;;;6.78;;
17965;SDS011;9108;53.204;10.424;2023-09-18T03:52:55;9.48;;;6.57;;
17965;SDS011;9108;53.204;10.424;2023-09-18T03:55:22;9.98;;;7.07;;
17965;SDS011;9108;53.204;10.424;2023-09-18T03:57:51;10.73;;;7.25;;
17965;SDS011;9108;53.204;10.424;2023-09-18T04:00:19;9.18;;;6.43;;
17965;SDS011;9108;53.204;10.424;2023-09-18T04:02:46;9.55;;;6.65;;
17965;SDS011;9108;53.204;10.424;2023-09-18T04:05:13;9.98;;;6.30;;
17965;SDS011;9108;53.204;10.424;2023-09-18T04:07:40;8.13;;;6.30;;
17965;SDS011;9108;53.204;10.424;2023-09-18T04:10:11;10.43;;;6.63;;
17965;SDS011;9108;53.204;10.424;2023-09-18T04:12:43;8.35;;;6.28;;
17965;SDS011;9108;53.204;10.424;2023-09-18T04:15:13;9.55;;;6.75;;
17965;SDS011;9108;53.204;10.424;2023-09-18T04:17:40;10.07;;;6.88;;
17965;SDS011;9108;53.204;10.424;2023-09-18T04:20:08;9.55;;;6.63;;
17965;SDS011;9108;53.204;10.424;2023-09-18T04:22:35;10.15;;;6.78;;
17965;SDS011;9108;53.204;10.424;2023-09-18T04:25:05;11.10;;;6.80;;
17965;SDS011;9108;53.204;10.424;2023-09-18T04:27:33;9.07;;;6.70;;
17965;SDS011;9108;53.204;10.424;2023-09-18T04:30:07;9.10;;;6.55;;
17965;SDS011;9108;53.204;10.424;2023-09-18T04:32:37;9.57;;;6.93;;
17965;SDS011;9108;53.204;10.424;2023-09-18T04:35:04;9.25;;;6.80;;
17965;SDS011;9108;53.204;10.424;2023-09-18T04:37:35;9.88;;;7.05;;
17965;SDS011;9108;53.204;10.424;2023-09-18T04:40:04;10.13;;;7.07;;
17965;SDS011;9108;53.204;10.424;2023-09-18T04:42:35;9.63;;;6.70;;
17965;SDS011;9108;53.204;10.424;2023-09-18T04:45:03;10.73;;;6.97;;
17965;SDS011;9108;53.204;10.424;2023-09-18T04:47:30;9.15;;;6.63;;
17965;SDS011;9108;53.204;10.424;2023-09-18T04:49:59;10.75;;;7.60;;
17965;SDS011;9108;53.204;10.424;2023-09-18T04:52:30;10.98;;;7.95;;
17965;SDS011;9108;53.204;10.424;2023-09-18T04:54:57;10.90;;;7.47;;
17965;SDS011;9108;53.204;10.424;2023-09-18T04:57:24;10.45;;;7.55;;
17965;SDS011;9108;53.204;10.424;2023-09-18T04:59:51;10.30;;;7.20;;
17965;SDS011;9108;53.204;10.424;2023-09-18T05:02:19;11.67;;;7.37;;
17965;SDS011;9108;53.204;10.424;2023-09-18T05:04:46;10.00;;;6.80;;
17965;SDS011;9108;53.204;10.424;2023-09-18T05:07:14;10.18;;;7.30;;
17965;SDS011;9108;53.204;10.424;2023-09-18T05:09:41;12.60;;;7.40;;
17965;SDS011;9108;53.204;10.424;2023-09-18T05:12:09;11.20;;;7.20;;
17965;SDS011;9108;53.204;10.424;2023-09-18T05:14:38;12.30;;;7.13;;
17965;SDS011;9108;53.204;10.424;2023-09-18T05:17:06;11.53;;;7.17;;
17965;SDS011;9108;53.204;10.424;2023-09-18T05:19:33;10.50;;;6.88;;
17965;SDS011;9108;53.204;10.424;2023-09-18T05:22:00;9.40;;;6.70;;
17965;SDS011;9108;53.204;10.424;2023-09-18T05:24:29;9.50;;;6.55;;
17965;SDS011;9108;53.204;10.424;2023-09-18T05:26:56;9.68;;;6.47;;
17965;SDS011;9108;53.204;10.424;2023-09-18T05:29:24;11.30;;;6.50;;
17965;SDS011;9108;53.204;10.424;2023-09-18T05:31:51;10.07;;;6.85;;
17965;SDS011;9108;53.204;10.424;2023-09-18T05:34:18;9.02;;;6.35;;
17965;SDS011;9108;53.204;10.424;2023-09-18T05:36:45;10.13;;;6.50;;
17965;SDS011;9108;53.204;10.424;2023-09-18T05:39:12;10.88;;;6.50;;
17965;SDS011;9108;53.204;10.424;2023-09-18T05:41:41;10.13;;;6.88;;
17965;SDS011;9108;53.204;10.424;2023-09-18T05:44:08;9.23;;;6.70;;
17965;SDS011;9108;53.204;10.424;2023-09-18T05:46:35;9.13;;;6.53;;
17965;SDS011;9108;53.204;10.424;2023-09-18T05:49:02;9.43;;;6.50;;
17965;SDS011;9108;53.204;10.424;2023-09-18T05:51:30;8.55;;;6.28;;
17965;SDS011;9108;53.204;10.424;2023-09-18T05:53:57;10.48;;;5.95;;
17965;SDS011;9108;53.204;10.424;2023-09-18T05:56:25;8.98;;;5.80;;
17965;SDS011;9108;53.204;10.424;2023-09-18T05:58:53;7.95;;;5.40;;
17965;SDS011;9108;53.204;10.424;2023-09-18T06:01:20;8.23;;;5.55;;
17965;SDS011;9108;53.204;10.424;2023-09-18T06:03:48;7.47;;;5.50;;
17965;SDS011;9108;53.204;10.424;2023-09-18T06:06:15;9.25;;;5.70;;
17965;SDS011;9108;53.204;10.424;2023-09-18T06:08:42;7.57;;;5.13;;
17965;SDS011;9108;53.204;10.424;2023-09-18T06:11:09;7.20;;;5.22;;
17965;SDS011;9108;53.204;10.424;2023-09-18T06:13:53;8.57;;;5.20;;
17965;SDS011;9108;53.204;10.424;2023-09-18T06:16:23;9.00;;;5.10;;
17965;SDS011;9108;53.204;10.424;2023-09-18T06:18:50;7.03;;;4.90;;
17965;SDS011;9108;53.204;10.424;2023-09-18T06:21:19;6.47;;;4.85;;
17965;SDS011;9108;53.204;10.424;2023-09-18T06:23:46;7.80;;;4.93;;
17965;SDS011;9108;53.204;10.424;2023-09-18T06:26:13;6.95;;;4.78;;
17965;SDS011;9108;53.204;10.424;2023-09-18T06:28:40;7.13;;;5.05;;
17965;SDS011;9108;53.204;10.424;2023-09-18T06:31:07;6.93;;;5.10;;
17965;SDS011;9108;53.204;10.424;2023-09-18T06:33:37;6.80;;;4.70;;
17965;SDS011;9108;53.204;10.424;2023-09-18T06:36:05;6.82;;;5.10;;
17965;SDS011;9108;53.204;10.424;2023-09-18T06:38:32;7.60;;;5.00;;
17965;SDS011;9108;53.204;10.424;2023-09-18T06:40:59;7.18;;;5.10;;
17965;SDS011;9108;53.204;10.424;2023-09-18T06:43:26;7.45;;;4.93;;
17965;SDS011;9108;53.204;10.424;2023-09-18T06:45:54;8.27;;;4.90;;
17965;SDS011;9108;53.204;10.424;2023-09-18T06:48:22;8.05;;;5.10;;
17965;SDS011;9108;53.204;10.424;2023-09-18T06:50:51;7.75;;;4.60;;
17965;SDS011;9108;53.204;10.424;2023-09-18T06:53:18;6.90;;;5.10;;
17965;SDS011;9108;53.204;10.424;2023-09-18T06:55:45;6.95;;;5.03;;
17965;SDS011;9108;53.204;10.424;2023-09-18T06:58:13;9.38;;;5.20;;
17965;SDS011;9108;53.204;10.424;2023-09-18T07:00:40;7.28;;;4.90;;
17965;SDS011;9108;53.204;10.424;2023-09-18T07:03:07;7.07;;;5.32;;
17965;SDS011;9108;53.204;10.424;2023-09-18T07:05:35;6.45;;;4.88;;
17965;SDS011;9108;53.204;10.424;2023-09-18T07:08:04;7.22;;;5.18;;
17965;SDS011;9108;53.204;10.424;2023-09-18T07:10:36;7.65;;;5.20;;
17965;SDS011;9108;53.204;10.424;2023-09-18T07:13:03;6.95;;;4.88;;
17965;SDS011;9108;53.204;10.424;2023-09-18T07:15:31;7.03;;;5.00;;
17965;SDS011;9108;53.204;10.424;2023-09-18T07:17:58;8.77;;;5.20;;
17965;SDS011;9108;53.204;10.424;2023-09-18T07:20:25;7.68;;;5.00;;
17965;SDS011;9108;53.204;10.424;2023-09-18T07:22:52;8.65;;;4.97;;
17965;SDS011;9108;53.204;10.424;2023-09-18T07:25:22;7.70;;;5.03;;
17965;SDS011;9108;53.204;10.424;2023-09-18T07:27:49;7.00;;;4.93;;
17965;SDS011;9108;53.204;10.424;2023-09-18T07:30:16;8.15;;;4.70;;
17965;SDS011;9108;53.204;10.424;2023-09-18T07:32:45;6.93;;;4.80;;
17965;SDS011;9108;53.204;10.424;2023-09-18T07:35:12;5.97;;;4.53;;
17965;SDS011;9108;53.204;10.424;2023-09-18T07:37:39;6.38;;;4.55;;
17965;SDS011;9108;53.204;10.424;2023-09-18T07:40:09;7.55;;;4.50;;
17965;SDS011;9108;53.204;10.424;2023-09-18T07:42:38;6.28;;;4.30;;
17965;SDS011;9108;53.204;10.424;2023-09-18T07:45:05;6.60;;;4.45;;
17965;SDS011;9108;53.204;10.424;2023-09-18T07:47:33;6.47;;;4.40;;
17965;SDS011;9108;53.204;10.424;2023-09-18T07:50:00;7.40;;;4.40;;
17965;SDS011;9108;53.204;10.424;2023-09-18T07:52:27;6.82;;;4.70;;
17965;SDS011;9108;53.204;10.424;2023-09-18T07:54:54;6.75;;;4.20;;
17965;SDS011;9108;53.204;10.424;2023-09-18T07:57:23;6.30;;;4.60;;
17965;SDS011;9108;53.204;10.424;2023-09-18T07:59:52;6.63;;;4.47;;
17965;SDS011;9108;53.204;10.424;2023-09-18T08:02:19;7.65;;;4.50;;
17965;SDS011;9108;53.204;10.424;2023-09-18T08:04:46;6.95;;;4.35;;
17965;SDS011;9108;53.204;10.424;2023-09-18T08:07:15;6.80;;;4.50;;
17965;SDS011;9108;53.204;10.424;2023-09-18T08:09:42;6.90;;;4.63;;
17965;SDS011;9108;53.204;10.424;2023-09-18T08:12:09;7.93;;;4.70;;
17965;SDS011;9108;53.204;10.424;2023-09-18T08:14:36;6.25;;;4.25;;
17965;SDS011;9108;53.204;10.424;2023-09-18T08:17:05;6.43;;;4.35;;
17965;SDS011;9108;53.204;10.424;2023-09-18T08:19:32;6.80;;;4.45;;
17965;SDS011;9108;53.204;10.424;2023-09-18T08:22:00;7.95;;;4.50;;
17965;SDS011;9108;53.204;10.424;2023-09-18T08:24:29;5.57;;;4.38;;
17965;SDS011;9108;53.204;10.424;2023-09-18T08:26:56;7.07;;;4.60;;
17965;SDS011;9108;53.204;10.424;2023-09-18T08:29:23;6.63;;;4.57;;
17965;SDS011;9108;53.204;10.424;2023-09-18T08:31:50;7.05;;;4.85;;
17965;SDS011;9108;53.204;10.424;2023-09-18T08:34:19;7.80;;;4.47;;
17965;SDS011;9108;53.204;10.424;2023-09-18T08:36:46;6.03;;;4.35;;
17965;SDS011;9108;53.204;10.424;2023-09-18T08:39:13;7.97;;;4.70;;
17965;SDS011;9108;53.204;10.424;2023-09-18T08:41:41;8.15;;;4.55;;
17965;SDS011;9108;53.204;10.424;2023-09-18T08:44:09;6.53;;;4.40;;
17965;SDS011;9108;53.204;10.424;2023-09-18T08:46:36;7.30;;;4.80;;
17965;SDS011;9108;53.204;10.424;2023-09-18T08:49:04;7.60;;;4.93;;
17965;SDS011;9108;53.204;10.424;2023-09-18T08:51:33;7.28;;;4.72;;
17965;SDS011;9108;53.204;10.424;2023-09-18T08:54:01;7.60;;;4.80;;
17965;SDS011;9108;53.204;10.424;2023-09-18T08:56:29;8.50;;;4.80;;
17965;SDS011;9108;53.204;10.424;2023-09-18T08:58:57;7.80;;;4.90;;
17965;SDS011;9108;53.204;10.424;2023-09-18T09:01:24;7.22;;;5.13;;
17965;SDS011;9108;53.204;10.424;2023-09-18T09:03:52;7.80;;;4.87;;
17965;SDS011;9108;53.204;10.424;2023-09-18T09:06:20;8.20;;;5.10;;
17965;SDS011;9108;53.204;10.424;2023-09-18T09:08:49;9.35;;;5.05;;
17965;SDS011;9108;53.204;10.424;2023-09-18T09:11:16;7.15;;;4.68;;
17965;SDS011;9108;53.204;10.424;2023-09-18T09:13:44;8.10;;;5.10;;
17965;SDS011;9108;53.204;10.424;2023-09-18T09:16:12;8.10;;;5.10;;
17965;SDS011;9108;53.204;10.424;2023-09-18T09:18:46;7.68;;;4.85;;
17965;SDS011;9108;53.204;10.424;2023-09-18T09:21:14;6.88;;;4.93;;
17965;SDS011;9108;53.204;10.424;2023-09-18T09:23:45;8.38;;;4.60;;
17965;SDS011;9108;53.204;10.424;2023-09-18T09:26:16;9.05;;;4.63;;
17965;SDS011;9108;53.204;10.424;2023-09-18T09:28:44;7.07;;;5.00;;
17965;SDS011;9108;53.204;10.424;2023-09-18T09:31:12;8.35;;;4.70;;
17965;SDS011;9108;53.204;10.424;2023-09-18T09:33:50;8.10;;;4.97;;
17965;SDS011;9108;53.204;10.424;2023-09-18T09:36:18;8.18;;;5.00;;
17965;SDS011;9108;53.204;10.424;2023-09-18T09:38:45;8.85;;;5.07;;
17965;SDS011;9108;53.204;10.424;2023-09-18T09:41:13;7.90;;;4.40;;
17965;SDS011;9108;53.204;10.424;2023-09-18T09:43:42;6.85;;;4.40;;
17965;SDS011;9108;53.204;10.424;2023-09-18T09:46:14;6.65;;;4.53;;
17965;SDS011;9108;53.204;10.424;2023-09-18T09:48:57;5.47;;;4.05;;
17965;SDS011;9108;53.204;10.424;2023-09-18T09:51:26;8.45;;;4.38;;
17965;SDS011;9108;53.204;10.424;2023-09-18T09:53:53;8.32;;;4.43;;
17965;SDS011;9108;53.204;10.424;2023-09-18T09:56:20;6.20;;;4.38;;
17965;SDS011;9108;53.204;10.424;2023-09-18T09:59:01;7.78;;;4.20;;
17965;SDS011;9108;53.204;10.424;2023-09-18T10:01:33;7.50;;;4.30;;
17965;SDS011;9108;53.204;10.424;2023-09-18T10:04:00;8.55;;;4.40;;
17965;SDS011;9108;53.204;10.424;2023-09-18T10:06:31;8.50;;;4.55;;
17965;SDS011;9108;53.204;10.424;2023-09-18T10:09:00;6.22;;;4.28;;
17965;SDS011;9108;53.204;10.424;2023-09-18T10:11:27;8.18;;;4.68;;
17965;SDS011;9108;53.204;10.424;2023-09-18T10:13:58;7.72;;;4.35;;
17965;SDS011;9108;53.204;10.424;2023-09-18T10:16:28;7.97;;;4.53;;
17965;SDS011;9108;53.204;10.424;2023-09-18T10:19:00;7.25;;;4.20;;
17965;SDS011;9108;53.204;10.424;2023-09-18T10:21:35;7.35;;;4.45;;
17965;SDS011;9108;53.204;10.424;2023-09-18T10:24:04;7.73;;;4.33;;
17965;SDS011;9108;53.204;10.424;2023-09-18T10:26:38;9.10;;;4.35;;
17965;SDS011;9108;53.204;10.424;2023-09-18T10:29:07;7.13;;;4.10;;
17965;SDS011;9108;53.204;10.424;2023-09-18T10:31:37;10.23;;;4.15;;
17965;SDS011;9108;53.204;10.424;2023-09-18T10:34:06;9.05;;;4.20;;
17965;SDS011;9108;53.204;10.424;2023-09-18T10:36:33;10.60;;;4.40;;
17965;SDS011;9108;53.204;10.424;2023-09-18T10:39:01;11.07;;;4.20;;
17965;SDS011;9108;53.204;10.424;2023-09-18T10:41:33;8.77;;;4.43;;
17965;SDS011;9108;53.204;10.424;2023-09-18T10:44:00;9.10;;;3.90;;
17965;SDS011;9108;53.204;10.424;2023-09-18T10:46:29;8.73;;;3.97;;
17965;SDS011;9108;53.204;10.424;2023-09-18T10:48:58;8.15;;;3.97;;
17965;SDS011;9108;53.204;10.424;2023-09-18T10:51:25;7.75;;;3.70;;
17965;SDS011;9108;53.204;10.424;2023-09-18T10:53:53;7.70;;;3.90;;
17965;SDS011;9108;53.204;10.424;2023-09-18T10:56:20;8.00;;;4.20;;
17965;SDS011;9108;53.204;10.424;2023-09-18T10:58:48;9.13;;;3.83;;
17965;SDS011;9108;53.204;10.424;2023-09-18T11:01:23;9.95;;;4.15;;
17965;SDS011;9108;53.204;10.424;2023-09-18T11:03:52;7.57;;;3.75;;
17965;SDS011;9108;53.204;10.424;2023-09-18T11:06:21;9.73;;;4.05;;
17965;SDS011;9108;53.204;10.424;2023-09-18T11:08:58;8.90;;;4.10;;
17965;SDS011;9108;53.204;10.424;2023-09-18T11:11:29;8.18;;;4.10;;
17965;SDS011;9108;53.204;10.424;2023-09-18T11:13:58;8.75;;;3.80;;
17965;SDS011;9108;53.204;10.424;2023-09-18T11:16:33;8.65;;;3.65;;
17965;SDS011;9108;53.204;10.424;2023-09-18T11:19:13;9.45;;;3.83;;
17965;SDS011;9108;53.204;10.424;2023-09-18T11:21:45;8.13;;;3.88;;
17965;SDS011;9108;53.204;10.424;2023-09-18T11:24:16;9.75;;;3.72;;
17965;SDS011;9108;53.204;10.424;2023-09-18T11:26:44;9.32;;;3.92;;
17965;SDS011;9108;53.204;10.424;2023-09-18T11:29:13;8.35;;;3.70;;
17965;SDS011;9108;53.204;10.424;2023-09-18T11:31:41;10.53;;;3.87;;
17965;SDS011;9108;53.204;10.424;2023-09-18T11:34:13;10.10;;;3.95;;
17965;SDS011;9108;53.204;10.424;2023-09-18T11:36:40;9.75;;;3.83;;
17965;SDS011;9108;53.204;10.424;2023-09-18T11:39:09;8.35;;;3.70;;
17965;SDS011;9108;53.204;10.424;2023-09-18T11:41:37;7.60;;;3.30;;
17965;SDS011;9108;53.204;10.424;2023-09-18T11:46:50;9.60;;;3.43;;
17965;SDS011;9108;53.204;10.424;2023-09-18T11:49:19;8.30;;;3.30;;
17965;SDS011;9108;53.204;10.424;2023-09-18T11:51:46;8.60;;;3.47;;
17965;SDS011;9108;53.204;10.424;2023-09-18T11:54:16;9.93;;;3.60;;
17965;SDS011;9108;53.204;10.424;2023-09-18T11:56:44;9.88;;;3.30;;
17965;SDS011;9108;53.204;10.424;2023-09-18T11:59:11;7.95;;;3.60;;
17965;SDS011;9108;53.204;10.424;2023-09-18T12:01:38;11.18;;;3.47;;
17965;SDS011;9108;53.204;10.424;2023-09-18T12:04:06;8.35;;;3.00;;
17965;SDS011;9108;53.204;10.424;2023-09-18T12:06:34;8.68;;;3.10;;
17965;SDS011;9108;53.204;10.424;2023-09-18T12:09:01;7.80;;;2.72;;
17965;SDS011;9108;53.204;10.424;2023-09-18T12:11:30;6.05;;;2.88;;
17965;SDS011;9108;53.204;10.424;2023-09-18T12:13:59;8.23;;;2.85;;
17965;SDS011;9108;53.204;10.424;2023-09-18T12:16:27;8.55;;;2.78;;
17965;SDS011;9108;53.204;10.424;2023-09-18T12:18:54;9.43;;;2.80;;
17965;SDS011;9108;53.204;10.424;2023-09-18T12:21:22;6.82;;;2.35;;
17965;SDS011;9108;53.204;10.424;2023-09-18T12:23:49;8.68;;;2.42;;
17965;SDS011;9108;53.204;10.424;2023-09-18T12:26:16;8.23;;;2.67;;
17965;SDS011;9108;53.204;10.424;2023-09-18T12:28:46;9.82;;;2.70;;
17965;SDS011;9108;53.204;10.424;2023-09-18T12:31:15;6.25;;;2.70;;
17965;SDS011;9108;53.204;10.424;2023-09-18T12:33:43;7.95;;;2.60;;
17965;SDS011;9108;53.204;10.424;2023-09-18T12:36:12;10.60;;;2.60;;
17965;SDS011;9108;53.204;10.424;2023-09-18T12:38:41;9.15;;;2.40;;
17965;SDS011;9108;53.204;10.424;2023-09-18T12:41:10;5.32;;;2.13;;
17965;SDS011;9108;53.204;10.424;2023-09-18T12:43:39;8.00;;;2.30;;
17965;SDS011;9108;53.204;10.424;2023-09-18T12:46:08;7.03;;;2.15;;
17965;SDS011;9108;53.204;10.424;2023-09-18T12:48:39;7.10;;;2.50;;
17965;SDS011;9108;53.204;10.424;2023-09-18T12:51:11;7.23;;;2.13;;
17965;SDS011;9108;53.204;10.424;2023-09-18T12:53:39;6.32;;;2.20;;
17965;SDS011;9108;53.204;10.424;2023-09-18T12:56:07;8.27;;;2.25;;
17965;SDS011;9108;53.204;10.424;2023-09-18T12:58:35;7.72;;;2.50;;
17965;SDS011;9108;53.204;10.424;2023-09-18T13:01:05;7.50;;;2.15;;
17965;SDS011;9108;53.204;10.424;2023-09-18T13:03:42;7.60;;;2.28;;
17965;SDS011;9108;53.204;10.424;2023-09-18T13:06:10;8.82;;;2.40;;
17965;SDS011;9108;53.204;10.424;2023-09-18T13:08:38;9.02;;;2.30;;
17965;SDS011;9108;53.204;10.424;2023-09-18T13:11:05;9.25;;;2.10;;
17965;SDS011;9108;53.204;10.424;2023-09-18T13:13:32;5.32;;;2.05;;
17965;SDS011;9108;53.204;10.424;2023-09-18T13:16:04;5.57;;;2.20;;
17965;SDS011;9108;53.204;10.424;2023-09-18T13:18:31;5.38;;;1.83;;
17965;SDS011;9108;53.204;10.424;2023-09-18T13:21:00;7.38;;;1.90;;
17965;SDS011;9108;53.204;10.424;2023-09-18T13:23:28;6.75;;;2.00;;
17965;SDS011;9108;53.204;10.424;2023-09-18T13:26:00;7.32;;;1.90;;
17965;SDS011;9108;53.204;10.424;2023-09-18T13:28:28;5.32;;;1.80;;
17965;SDS011;9108;53.204;10.424;2023-09-18T13:30:56;5.90;;;1.90;;
17965;SDS011;9108;53.204;10.424;2023-09-18T13:33:24;6.78;;;1.80;;
17965;SDS011;9108;53.204;10.424;2023-09-18T13:35:53;6.73;;;1.80;;
17965;SDS011;9108;53.204;10.424;2023-09-18T13:38:22;4.75;;;2.00;;
17965;SDS011;9108;53.204;10.424;2023-09-18T13:40:51;7.00;;;1.90;;
17965;SDS011;9108;53.204;10.424;2023-09-18T13:43:18;6.60;;;2.00;;
17965;SDS011;9108;53.204;10.424;2023-09-18T13:45:47;7.40;;;1.87;;
17965;SDS011;9108;53.204;10.424;2023-09-18T13:48:16;6.47;;;1.92;;
17965;SDS011;9108;53.204;10.424;2023-09-18T13:50:44;7.78;;;2.20;;
17965;SDS011;9108;53.204;10.424;2023-09-18T13:53:11;5.85;;;1.80;;
17965;SDS011;9108;53.204;10.424;2023-09-18T13:55:40;6.05;;;1.70;;
17965;SDS011;9108;53.204;10.424;2023-09-18T13:58:07;5.88;;;1.85;;
17965;SDS011;9108;53.204;10.424;2023-09-18T14:00:36;4.95;;;1.70;;
17965;SDS011;9108;53.204;10.424;2023-09-18T14:03:03;6.63;;;1.63;;
17965;SDS011;9108;53.204;10.424;2023-09-18T14:05:33;6.05;;;1.80;;
17965;SDS011;9108;53.204;10.424;2023-09-18T14:08:05;7.00;;;1.65;;
17965;SDS011;9108;53.204;10.424;2023-09-18T14:10:39;7.10;;;1.80;;
17965;SDS011;9108;53.204;10.424;2023-09-18T14:13:08;7.85;;;1.80;;
17965;SDS011;9108;53.204;10.424;2023-09-18T14:15:42;4.80;;;1.80;;
17965;SDS011;9108;53.204;10.424;2023-09-18T14:18:10;4.85;;;1.80;;
17965;SDS011;9108;53.204;10.424;2023-09-18T14:20:38;5.68;;;1.70;;
17965;SDS011;9108;53.204;10.424;2023-09-18T14:23:06;6.13;;;1.90;;
17965;SDS011;9108;53.204;10.424;2023-09-18T14:25:33;7.13;;;1.90;;
17965;SDS011;9108;53.204;10.424;2023-09-18T14:28:02;9.52;;;1.90;;
17965;SDS011;9108;53.204;10.424;2023-09-18T14:30:31;8.93;;;2.05;;
17965;SDS011;9108;53.204;10.424;2023-09-18T14:32:59;5.03;;;1.80;;
17965;SDS011;9108;53.204;10.424;2023-09-18T14:35:27;6.65;;;1.95;;
17965;SDS011;9108;53.204;10.424;2023-09-18T14:37:54;6.70;;;1.85;;
17965;SDS011;9108;53.204;10.424;2023-09-18T14:40:22;7.00;;;2.00;;
17965;SDS011;9108;53.204;10.424;2023-09-18T14:42:56;6.10;;;1.85;;
17965;SDS011;9108;53.204;10.424;2023-09-18T14:45:28;6.43;;;1.85;;
17965;SDS011;9108;53.204;10.424;2023-09-18T14:47:55;6.55;;;1.90;;
17965;SDS011;9108;53.204;10.424;2023-09-18T14:50:22;6.68;;;2.00;;
17965;SDS011;9108;53.204;10.424;2023-09-18T14:52:49;7.88;;;2.20;;
17965;SDS011;9108;53.204;10.424;2023-09-18T14:55:16;4.93;;;2.10;;